^^
Your Local Weather - Clay, NY Station Historical Data
Daily Summary for March 9, 2017 Units:  Metric    English   Both
« Previous Day
Next Day »
Daily Weekly Monthly Yearly Custom
  High: Low: Average:
Temperature: 4.3 °C -1.6 °C 1.3 °C
Dew Point: -3.3 °C -6.7 °C -5 °C
Humidity: 86% 49% 63%
Wind Speed: 14.5km/h 0km/h 5.8km/h
Wind Gust: 24.1km/h - -
Wind- - WNW
Pressure: 1017.5 hPa 1009.4 hPa -
Precipitation: 0 mm    
Historical Graphs
 
 
Tabular Data for March 9, 2017
Time Temperature Dew Point Pressure Wind Wind Speed Wind Gust Humidity Rainfall Rate (Hourly) solar
00:04 4.2 °C -4.3 °C 1009.4 hPa WNW 3.2 km/h 4.8 km/h 54% 0 mm 0 W/m2
00:10 4.3 °C -4.4 °C 1009.4 hPa WNW 4.8 km/h 4.8 km/h 53% 0 mm 0 W/m2
00:16 4.3 °C -4.7 °C 1009.7 hPa West 4.8 km/h 4.8 km/h 52% 0 mm 0 W/m2
00:22 4.3 °C -4.7 °C 1009.7 hPa WNW 3.2 km/h 8 km/h 52% 0 mm 0 W/m2
00:28 4.1 °C -4.9 °C 1009.7 hPa WNW 3.2 km/h 8 km/h 52% 0 mm 0 W/m2
00:34 4.1 °C -4.6 °C 1009.7 hPa NW 3.2 km/h 8 km/h 53% 0 mm 0 W/m2
00:40 4 °C -4.2 °C 1009.7 hPa NNW 3.2 km/h 3.2 km/h 55% 0 mm 0 W/m2
00:46 3.7 °C -4.7 °C 1009.7 hPa WNW 3.2 km/h 4.8 km/h 54% 0 mm 0 W/m2
00:52 3.8 °C -4.4 °C 1010 hPa WNW 4.8 km/h 6.4 km/h 55% 0 mm 0 W/m2
00:58 3.9 °C -4.3 °C 1009.4 hPa WNW 6.4 km/h 9.7 km/h 55% 0 mm 0 W/m2
01:04 3.8 °C -4.4 °C 1009.7 hPa WNW 6.4 km/h 6.4 km/h 55% 0 mm 0 W/m2
01:10 3.8 °C -4.9 °C 1010 hPa WNW 8 km/h 8 km/h 53% 0 mm 0 W/m2
01:16 3.7 °C -5 °C 1010 hPa WNW 6.4 km/h 8 km/h 53% 0 mm 0 W/m2
01:22 3.7 °C -5.3 °C 1010 hPa WNW 8 km/h 9.7 km/h 52% 0 mm 0 W/m2
01:28 3.6 °C -5.4 °C 1010 hPa WNW 6.4 km/h 9.7 km/h 52% 0 mm 0 W/m2
01:34 3.4 °C -5.5 °C 1010 hPa WNW 4.8 km/h 11.3 km/h 52% 0 mm 0 W/m2
01:40 3.4 °C -5.6 °C 1010 hPa West 4.8 km/h 4.8 km/h 52% 0 mm 0 W/m2
01:46 3.3 °C -5.7 °C 1010 hPa WNW 4.8 km/h 9.7 km/h 52% 0 mm 0 W/m2
01:52 3.3 °C -5.4 °C 1010 hPa WNW 4.8 km/h 4.8 km/h 53% 0 mm 0 W/m2
01:58 3.2 °C -5.8 °C 1010 hPa WNW 4.8 km/h 11.3 km/h 52% 0 mm 0 W/m2
02:04 3.2 °C -5.8 °C 1010 hPa WNW 4.8 km/h 4.8 km/h 52% 0 mm 0 W/m2
02:10 3 °C -5.9 °C 1010 hPa WNW 4.8 km/h 8 km/h 52% 0 mm 0 W/m2
02:16 3 °C -5.7 °C 1010 hPa WNW 4.8 km/h 8 km/h 53% 0 mm 0 W/m2
02:22 2.9 °C -5.4 °C 1010 hPa NW 4.8 km/h 4.8 km/h 54% 0 mm 0 W/m2
02:28 2.8 °C -5.6 °C 1010 hPa NW 1.6 km/h 4.8 km/h 54% 0 mm 0 W/m2
02:34 2.8 °C -5.6 °C 1010.4 hPa WNW 3.2 km/h 8 km/h 54% 0 mm 0 W/m2
02:40 2.8 °C -5.6 °C 1010.4 hPa West 4.8 km/h 4.8 km/h 54% 0 mm 0 W/m2
02:46 2.8 °C -5.3 °C 1010.4 hPa NNW 4.8 km/h 6.4 km/h 55% 0 mm 0 W/m2
02:52 2.8 °C -5.3 °C 1010.4 hPa WNW 4.8 km/h 8 km/h 55% 0 mm 0 W/m2
02:58 2.8 °C -5.2 °C 1010.4 hPa WNW 4.8 km/h 8 km/h 56% 0 mm 0 W/m2
03:04 2.7 °C -4.9 °C 1010.4 hPa WNW 3.2 km/h 4.8 km/h 57% 0 mm 0 W/m2
03:10 2.7 °C -5 °C 1010.7 hPa West 3.2 km/h 3.2 km/h 57% 0 mm 0 W/m2
03:16 2.6 °C -4.8 °C 1010.4 hPa WSW 1.6 km/h 3.2 km/h 58% 0 mm 0 W/m2
03:22 2.5 °C -4.9 °C 1010.7 hPa WSW 1.6 km/h 3.2 km/h 58% 0 mm 0 W/m2
03:28 2.4 °C -5 °C 1011.1 hPa WNW 3.2 km/h 4.8 km/h 58% 0 mm 0 W/m2
03:34 2.6 °C -5.3 °C 1011.1 hPa WNW 4.8 km/h 9.7 km/h 56% 0 mm 0 W/m2
03:40 2.8 °C -5.6 °C 1011.1 hPa WNW 6.4 km/h 8 km/h 54% 0 mm 0 W/m2
03:46 2.8 °C -6.1 °C 1011.1 hPa West 8 km/h 8 km/h 52% 0 mm 0 W/m2
03:52 3 °C -6.2 °C 1011.1 hPa West 8 km/h 8 km/h 51% 0 mm 0 W/m2
03:58 3.1 °C -6.6 °C 1011.1 hPa WNW 9.7 km/h 19.3 km/h 49% 0 mm 0 W/m2
04:04 2.8 °C -4.8 °C 1011.4 hPa WNW 12.9 km/h 20.9 km/h 57% 0 mm 0 W/m2
04:10 2.2 °C -4.6 °C 1012.1 hPa WNW 12.9 km/h 12.9 km/h 61% 0 mm 0 W/m2
04:16 1.9 °C -4.4 °C 1012.1 hPa NNE 12.9 km/h 12.9 km/h 63% 0 mm 0 W/m2
04:22 1.8 °C -4.5 °C 1012.1 hPa WNW 14.5 km/h 14.5 km/h 63% 0 mm 0 W/m2
04:28 1.6 °C -4.7 °C 1012.1 hPa West 11.3 km/h 20.9 km/h 63% 0 mm 0 W/m2
04:34 1.6 °C -4.9 °C 1012.4 hPa NW 11.3 km/h 14.5 km/h 62% 0 mm 0 W/m2
04:40 1.5 °C -5.2 °C 1012.4 hPa WSW 12.9 km/h 12.9 km/h 61% 0 mm 0 W/m2
04:46 1.4 °C -5.7 °C 1012.8 hPa NNW 12.9 km/h 16.1 km/h 59% 0 mm 0 W/m2
04:52 1.4 °C -6 °C 1012.8 hPa West 14.5 km/h 24.1 km/h 58% 0 mm 0 W/m2
04:58 1.2 °C -5.9 °C 1012.8 hPa WNW 14.5 km/h 24.1 km/h 59% 0 mm 0 W/m2
05:04 0.8 °C -6.3 °C 1012.8 hPa NW 12.9 km/h 17.7 km/h 59% 0 mm 0 W/m2
05:10 0.7 °C -6.2 °C 1013.1 hPa NNW 11.3 km/h 11.3 km/h 60% 0 mm 0 W/m2
05:16 0.6 °C -6.3 °C 1013.1 hPa North 9.7 km/h 11.3 km/h 60% 0 mm 0 W/m2
05:22 0.4 °C -6.4 °C 1013.4 hPa WNW 9.7 km/h 9.7 km/h 60% 0 mm 0 W/m2
05:28 0.4 °C -6.5 °C 1013.8 hPa WNW 9.7 km/h 12.9 km/h 60% 0 mm 0 W/m2
05:34 0.3 °C -6.4 °C 1013.8 hPa WNW 11.3 km/h 12.9 km/h 61% 0 mm 0 W/m2
05:40 0.1 °C -6.2 °C 1014.1 hPa NNW 12.9 km/h 17.7 km/h 63% 0 mm 0 W/m2
05:46 -0.2 °C -6.4 °C 1014.1 hPa North 12.9 km/h 17.7 km/h 63% 0 mm 0 W/m2
05:52 -0.4 °C -6.4 °C 1014.1 hPa WNW 9.7 km/h 11.3 km/h 64% 0 mm 0 W/m2
05:58 -0.6 °C -6.3 °C 1014.1 hPa NW 8 km/h 11.3 km/h 65% 0 mm 0 W/m2
06:04 -0.7 °C -6.5 °C 1014.1 hPa WNW 6.4 km/h 8 km/h 65% 0 mm 0 W/m2
06:10 -0.8 °C -6.6 °C 1014.4 hPa WNW 8 km/h 8 km/h 65% 0 mm 0 W/m2
06:16 -0.8 °C -6.6 °C 1014.4 hPa NW 8 km/h 11.3 km/h 65% 0 mm 0 W/m2
06:22 -0.8 °C -6.6 °C 1014.8 hPa NW 6.4 km/h 6.4 km/h 65% 0 mm 0 W/m2
06:28 -0.9 °C -6.7 °C 1014.8 hPa NW 6.4 km/h 9.7 km/h 65% 0 mm 0 W/m2
06:34 -0.9 °C -6.7 °C 1014.8 hPa WNW 6.4 km/h 19.3 km/h 65% 0 mm 0 W/m2
06:40 -0.9 °C -6.5 °C 1014.8 hPa WNW 8 km/h 9.7 km/h 66% 0 mm 5 W/m2
06:46 -0.9 °C -6.3 °C 1014.8 hPa WNW 8 km/h 9.7 km/h 67% 0 mm 7 W/m2
06:52 -1 °C -6 °C 1015.1 hPa NW 6.4 km/h 8 km/h 69% 0 mm 12 W/m2
06:58 -1.1 °C -5.8 °C 1015.1 hPa WNW 6.4 km/h 8 km/h 70% 0 mm 16 W/m2
07:04 -1.1 °C -5.8 °C 1015.1 hPa WNW 4.8 km/h 6.4 km/h 70% 0 mm 16 W/m2
07:10 -1.1 °C -5.8 °C 1015.1 hPa NW 4.8 km/h 4.8 km/h 70% 0 mm 28 W/m2
07:16 -1 °C -5.8 °C 1015.5 hPa WNW 4.8 km/h 9.7 km/h 70% 0 mm 30 W/m2
07:22 -0.9 °C -5.7 °C 1015.1 hPa NW 3.2 km/h 6.4 km/h 70% 0 mm 26 W/m2
07:28 -0.9 °C -5.5 °C 1015.1 hPa WNW 4.8 km/h 6.4 km/h 71% 0 mm 35 W/m2
07:34 -0.8 °C -5.3 °C 1015.5 hPa WNW 4.8 km/h 6.4 km/h 72% 0 mm 25 W/m2
07:40 -0.8 °C -5.3 °C 1015.5 hPa WNW 4.8 km/h 4.8 km/h 72% 0 mm 18 W/m2
07:46 -0.9 °C -5.1 °C 1015.5 hPa WNW 4.8 km/h 4.8 km/h 73% 0 mm 19 W/m2
07:52 -1.1 °C -4.8 °C 1015.8 hPa WNW 4.8 km/h 4.8 km/h 76% 0 mm 37 W/m2
07:58 -1.4 °C -4.4 °C 1015.8 hPa WNW 4.8 km/h 4.8 km/h 80% 0 mm 33 W/m2
08:04 -1.6 °C -4.2 °C 1015.8 hPa WSW 4.8 km/h 4.8 km/h 82% 0 mm 23 W/m2
08:10 -1.6 °C -3.9 °C 1015.8 hPa West 6.4 km/h 6.4 km/h 84% 0 mm 76 W/m2
08:16 -1.6 °C -3.8 °C 1015.8 hPa WNW 8 km/h 14.5 km/h 85% 0 mm 60 W/m2
08:22 -1.4 °C -3.4 °C 1015.8 hPa West 8 km/h 8 km/h 86% 0 mm 116 W/m2
08:28 -1.2 °C -3.4 °C 1015.8 hPa West 6.4 km/h 8 km/h 85% 0 mm 123 W/m2
08:34 -0.9 °C -3.3 °C 1015.8 hPa WNW 6.4 km/h 9.7 km/h 84% 0 mm 65 W/m2
08:40 -0.8 °C -3.4 °C 1015.8 hPa WNW 6.4 km/h 6.4 km/h 82% 0 mm 46 W/m2
08:46 -0.7 °C -3.7 °C 1015.8 hPa WNW 4.8 km/h 6.4 km/h 80% 0 mm 63 W/m2
08:52 -0.7 °C -3.7 °C 1015.8 hPa WNW 4.8 km/h 6.4 km/h 80% 0 mm 74 W/m2
08:58 -0.7 °C -3.5 °C 1015.8 hPa WNW 3.2 km/h 6.4 km/h 81% 0 mm 77 W/m2
09:04 -0.6 °C -3.6 °C 1015.8 hPa NW 3.2 km/h 9.7 km/h 80% 0 mm 77 W/m2
09:10 -0.4 °C -3.8 °C 1015.8 hPa WNW 4.8 km/h 4.8 km/h 78% 0 mm 84 W/m2
09:16 -0.3 °C -3.7 °C 1015.8 hPa WNW 4.8 km/h 8 km/h 78% 0 mm 109 W/m2
09:22 -0.2 °C -4.3 °C 1015.8 hPa WNW 6.4 km/h 16.1 km/h 74% 0 mm 102 W/m2
09:28 -0.2 °C -4.5 °C 1015.8 hPa West 9.7 km/h 22.5 km/h 73% 0 mm 107 W/m2
09:34 -0.3 °C -4.3 °C 1015.8 hPa NW 9.7 km/h 12.9 km/h 74% 0 mm 139 W/m2
09:40 -0.2 °C -4.4 °C 1015.8 hPa WNW 8 km/h 9.7 km/h 73% 0 mm 144 W/m2
09:46 -0.2 °C -4.3 °C 1016.1 hPa West 9.7 km/h 12.9 km/h 74% 0 mm 160 W/m2
09:52 -0.3 °C -4.6 °C 1016.1 hPa WNW 11.3 km/h 11.3 km/h 73% 0 mm 197 W/m2
09:58 -0.2 °C -4.2 °C 1016.1 hPa NW 9.7 km/h 14.5 km/h 74% 0 mm 128 W/m2
10:04 0.1 °C -4.4 °C 1016.1 hPa WNW 9.7 km/h 9.7 km/h 72% 0 mm 241 W/m2
10:10 0.3 °C -4.7 °C 1016.5 hPa WNW 9.7 km/h 9.7 km/h 69% 0 mm 200 W/m2
10:16 0.5 °C -4.9 °C 1016.1 hPa West 11.3 km/h 11.3 km/h 67% 0 mm 223 W/m2
10:22 0.8 °C -4.7 °C 1016.5 hPa NW 9.7 km/h 20.9 km/h 67% 0 mm 341 W/m2
10:28 1.2 °C -4.7 °C 1016.5 hPa West 9.7 km/h 20.9 km/h 65% 0 mm 255 W/m2
10:34 1.3 °C -5 °C 1016.5 hPa WNW 11.3 km/h 17.7 km/h 63% 0 mm 246 W/m2
10:40 1.4 °C -4.5 °C 1016.1 hPa West 9.7 km/h 12.9 km/h 65% 0 mm 262 W/m2
10:46 1.8 °C -4.1 °C 1016.1 hPa West 8 km/h 12.9 km/h 65% 0 mm 482 W/m2
10:52 2.1 °C -4.3 °C 1015.8 hPa NW 8 km/h 8 km/h 63% 0 mm 369 W/m2
10:58 2.4 °C -3.5 °C 1015.8 hPa NW 6.4 km/h 9.7 km/h 65% 0 mm 527 W/m2
11:04 2.5 °C -3.6 °C 1015.8 hPa North 8 km/h 11.3 km/h 64% 0 mm 346 W/m2
11:10 2.4 °C -3.7 °C 1015.8 hPa NW 8 km/h 8 km/h 64% 0 mm 294 W/m2
11:16 2.1 °C -3.8 °C 1016.1 hPa NW 8 km/h 12.9 km/h 65% 0 mm 237 W/m2
11:22 1.7 °C -3.9 °C 1016.1 hPa WNW 8 km/h 8 km/h 66% 0 mm 294 W/m2
11:28 1.8 °C -3.7 °C 1016.1 hPa WNW 6.4 km/h 8 km/h 67% 0 mm 246 W/m2
11:34 1.8 °C -3.8 °C 1015.8 hPa WNW 8 km/h 9.7 km/h 66% 0 mm 237 W/m2
11:40 2.2 °C -3.7 °C 1016.1 hPa NW 8 km/h 8 km/h 65% 0 mm 334 W/m2
11:46 2.7 °C -4.1 °C 1016.1 hPa WNW 6.4 km/h 8 km/h 61% 0 mm 622 W/m2
11:52 2.9 °C -3.7 °C 1016.1 hPa WNW 6.4 km/h 14.5 km/h 62% 0 mm 367 W/m2
11:58 2.3 °C -4.4 °C 1016.1 hPa NW 9.7 km/h 14.5 km/h 61% 0 mm 172 W/m2
12:04 2.4 °C -3.9 °C 1016.1 hPa NW 9.7 km/h 12.9 km/h 63% 0 mm 842 W/m2
12:10 2.8 °C -4.2 °C 1016.1 hPa WNW 9.7 km/h 11.3 km/h 60% 0 mm 309 W/m2
12:16 2.7 °C -4.6 °C 1016.5 hPa West 11.3 km/h 14.5 km/h 59% 0 mm 357 W/m2
12:22 3.2 °C -3.4 °C 1016.5 hPa West 9.7 km/h 11.3 km/h 62% 0 mm 438 W/m2
12:28 2.7 °C -4.1 °C 1016.1 hPa West 8 km/h 20.9 km/h 61% 0 mm 255 W/m2
12:34 2.4 °C -4.2 °C 1016.1 hPa WNW 9.7 km/h 9.7 km/h 62% 0 mm 204 W/m2
12:40 2.2 °C -4.4 °C 1016.1 hPa WNW 9.7 km/h 9.7 km/h 62% 0 mm 232 W/m2
12:46 2.6 °C -4 °C 1016.1 hPa West 9.7 km/h 9.7 km/h 62% 0 mm 809 W/m2
12:52 2.7 °C -3.9 °C 1016.1 hPa WNW 8 km/h 12.9 km/h 62% 0 mm 176 W/m2
12:58 2.2 °C -4.4 °C 1016.1 hPa NW 8 km/h 12.9 km/h 62% 0 mm 209 W/m2
13:04 1.9 °C -4.6 °C 1016.1 hPa NNW 9.7 km/h 14.5 km/h 62% 0 mm 248 W/m2
13:10 1.9 °C -4.6 °C 1016.1 hPa NW 11.3 km/h 12.9 km/h 62% 0 mm 348 W/m2
13:16 2.1 °C -4.5 °C 1016.1 hPa NNW 11.3 km/h 12.9 km/h 62% 0 mm 308 W/m2
13:22 2.5 °C -3.4 °C 1015.8 hPa WNW 11.3 km/h 11.3 km/h 65% 0 mm 830 W/m2
13:28 2.5 °C -4.5 °C 1016.1 hPa WNW 9.7 km/h 12.9 km/h 60% 0 mm 229 W/m2
13:32 2.3 °C -4.5 °C 1015.8 hPa NNW 9.7 km/h 14.5 km/h 61% 0 mm 373 W/m2
13:38 2.3 °C -4.7 °C 1015.8 hPa WNW 9.7 km/h 14.5 km/h 60% 0 mm 272 W/m2
13:42 2.4 °C -4.1 °C 1015.8 hPa NW 9.7 km/h 9.7 km/h 62% 0 mm 237 W/m2
13:46 2.4 °C -4.6 °C 1015.8 hPa NW 8 km/h 9.7 km/h 60% 0 mm 290 W/m2
13:48 2.3 °C -4.4 °C 1016.1 hPa NNW 8 km/h 9.7 km/h 61% 0 mm 274 W/m2
13:52 2.6 °C -4.6 °C 1015.8 hPa WNW 8 km/h 12.9 km/h 59% 0 mm 494 W/m2
13:56 2.5 °C -4.7 °C 1016.1 hPa WNW 9.7 km/h 12.9 km/h 59% 0 mm 269 W/m2
14:06 2.8 °C -4.2 °C 1015.8 hPa WNW 8 km/h 12.9 km/h 60% 0 mm 522 W/m2
14:08 2.9 °C -4.3 °C 1015.8 hPa North 9.7 km/h 16.1 km/h 59% 0 mm 427 W/m2
14:14 2.6 °C -4.9 °C 1016.1 hPa WNW 8 km/h 9.7 km/h 58% 0 mm 262 W/m2
14:18 2.6 °C -4.8 °C 1015.8 hPa WNW 8 km/h 12.9 km/h 58% 0 mm 476 W/m2
14:24 2.7 °C -4.6 °C 1015.8 hPa NW 9.7 km/h 16.1 km/h 59% 0 mm 322 W/m2
14:30 2.5 °C -5.4 °C 1015.8 hPa WSW 9.7 km/h 9.7 km/h 56% 0 mm 304 W/m2
14:36 2.5 °C -5.7 °C 1015.8 hPa NW 8 km/h 9.7 km/h 55% 0 mm 299 W/m2
14:42 2.7 °C -5 °C 1015.8 hPa NW 8 km/h 17.7 km/h 57% 0 mm 533 W/m2
14:48 2.4 °C -5.4 °C 1015.8 hPa NW 11.3 km/h 17.7 km/h 56% 0 mm 512 W/m2
14:54 2.4 °C -5.2 °C 1015.8 hPa West 9.7 km/h 14.5 km/h 57% 0 mm 301 W/m2
15:00 3.3 °C -5.1 °C 1015.8 hPa North 8 km/h 12.9 km/h 54% 0 mm 304 W/m2
15:06 3.2 °C -4.5 °C 1015.8 hPa NW 6.4 km/h 12.9 km/h 57% 0 mm 367 W/m2
15:12 2.7 °C -5.2 °C 1015.8 hPa NW 8 km/h 16.1 km/h 56% 0 mm 338 W/m2
15:18 2.8 °C -4.7 °C 1015.8 hPa WNW 8 km/h 16.1 km/h 58% 0 mm 323 W/m2
15:24 2.8 °C -4.9 °C 1015.8 hPa WNW 6.4 km/h 11.3 km/h 57% 0 mm 234 W/m2
15:30 2.5 °C -5.4 °C 1015.8 hPa WNW 8 km/h 8 km/h 56% 0 mm 214 W/m2
15:36 2.3 °C -5.1 °C 1015.8 hPa NW 9.7 km/h 16.1 km/h 58% 0 mm 207 W/m2
15:42 2.1 °C -5.3 °C 1015.8 hPa West 9.7 km/h 16.1 km/h 58% 0 mm 186 W/m2
15:48 2.1 °C -5.3 °C 1015.8 hPa WNW 9.7 km/h 16.1 km/h 58% 0 mm 172 W/m2
15:54 2 °C -5.2 °C 1016.1 hPa NW 8 km/h 9.7 km/h 59% 0 mm 183 W/m2
16:00 2.1 °C -5.6 °C 1016.1 hPa NW 8 km/h 14.5 km/h 57% 0 mm 146 W/m2
16:06 1.8 °C -5.6 °C 1016.1 hPa NW 9.7 km/h 14.5 km/h 58% 0 mm 142 W/m2
16:12 1.8 °C -5.4 °C 1015.8 hPa NNW 6.4 km/h 8 km/h 59% 0 mm 125 W/m2
16:18 1.8 °C -5.4 °C 1016.1 hPa WNW 6.4 km/h 8 km/h 59% 0 mm 118 W/m2
16:24 1.7 °C -5.7 °C 1016.5 hPa NW 8 km/h 9.7 km/h 58% 0 mm 105 W/m2
16:30 1.7 °C -5.3 °C 1016.5 hPa WNW 6.4 km/h 8 km/h 60% 0 mm 95 W/m2
16:36 1.6 °C -5.1 °C 1016.5 hPa NW 6.4 km/h 9.7 km/h 61% 0 mm 104 W/m2
16:42 1.6 °C -5.2 °C 1016.5 hPa NW 8 km/h 12.9 km/h 61% 0 mm 100 W/m2
16:48 1.4 °C -5.7 °C 1016.5 hPa WNW 8 km/h 12.9 km/h 59% 0 mm 83 W/m2
16:54 1.4 °C -5.1 °C 1016.5 hPa WNW 8 km/h 12.9 km/h 62% 0 mm 79 W/m2
17:00 1.4 °C -5.3 °C 1016.5 hPa NW 4.8 km/h 6.4 km/h 61% 0 mm 67 W/m2
17:06 1.4 °C -5.1 °C 1016.1 hPa WNW 3.2 km/h 6.4 km/h 62% 0 mm 53 W/m2
17:12 1.3 °C -5.7 °C 1016.5 hPa NW 4.8 km/h 4.8 km/h 60% 0 mm 40 W/m2
17:18 1.3 °C -5.7 °C 1016.5 hPa WNW 6.4 km/h 6.4 km/h 60% 0 mm 39 W/m2
17:24 1.2 °C -5.5 °C 1016.5 hPa NW 6.4 km/h 8 km/h 61% 0 mm 26 W/m2
17:30 1.2 °C -5.9 °C 1016.5 hPa NW 6.4 km/h 6.4 km/h 59% 0 mm 26 W/m2
17:36 1.2 °C -5.7 °C 1016.5 hPa NW 4.8 km/h 6.4 km/h 60% 0 mm 19 W/m2
17:42 1.2 °C -5.7 °C 1016.5 hPa WNW 3.2 km/h 3.2 km/h 60% 0 mm 16 W/m2
17:48 1.2 °C -5.7 °C 1016.5 hPa WNW 1.6 km/h 4.8 km/h 60% 0 mm 9 W/m2
17:54 1.2 °C -5.9 °C 1016.5 hPa NW 3.2 km/h 8 km/h 59% 0 mm 7 W/m2
18:00 1.2 °C -5.7 °C 1016.5 hPa NW 3.2 km/h 3.2 km/h 60% 0 mm 0 W/m2
18:06 1.1 °C -5.8 °C 1016.5 hPa WNW 1.6 km/h 4.8 km/h 60% 0 mm 0 W/m2
18:12 1.1 °C -5.8 °C 1016.5 hPa NW 3.2 km/h 3.2 km/h 60% 0 mm 0 W/m2
18:18 1.1 °C -5.8 °C 1016.5 hPa West 1.6 km/h 4.8 km/h 60% 0 mm 0 W/m2
18:24 1.1 °C -5.8 °C 1016.8 hPa West 1.6 km/h 4.8 km/h 60% 0 mm 0 W/m2
18:30 1.1 °C -5.8 °C 1016.8 hPa West 1.6 km/h 1.6 km/h 60% 0 mm 0 W/m2
18:36 1 °C -5.7 °C 1016.8 hPa Calm   1.6 km/h 61% 0 mm 0 W/m2
18:42 0.9 °C -5.7 °C 1016.8 hPa Calm   3.2 km/h 61% 0 mm 0 W/m2
18:48 0.9 °C -5.7 °C 1016.8 hPa West 1.6 km/h 3.2 km/h 61% 0 mm 0 W/m2
18:54 1 °C -5.7 °C 1016.8 hPa West 3.2 km/h 4.8 km/h 61% 0 mm 0 W/m2
19:00 1.1 °C -5.6 °C 1016.8 hPa WSW 1.6 km/h 1.6 km/h 61% 0 mm 0 W/m2
19:06 1 °C -5.5 °C 1017.2 hPa Calm   1.6 km/h 62% 0 mm 0 W/m2
19:12 0.9 °C -5.5 °C 1016.8 hPa Calm   1.6 km/h 62% 0 mm 0 W/m2
19:18 0.9 °C -5.4 °C 1017.2 hPa Calm   3.2 km/h 63% 0 mm 0 W/m2
19:24 0.9 °C -5.4 °C 1017.2 hPa Calm     63% 0 mm 0 W/m2
19:30 0.8 °C -5.4 °C 1016.8 hPa Calm     63% 0 mm 0 W/m2
19:36 0.8 °C -5.5 °C 1017.2 hPa Calm     63% 0 mm 0 W/m2
19:42 0.7 °C -5.3 °C 1016.8 hPa Calm     64% 0 mm 0 W/m2
19:48 0.7 °C -5.4 °C 1017.2 hPa Calm     64% 0 mm 0 W/m2
19:54 0.6 °C -5.2 °C 1017.2 hPa Calm     65% 0 mm 0 W/m2
20:00 0.6 °C -5.1 °C 1017.2 hPa Calm     66% 0 mm 0 W/m2
20:06 0.5 °C -5.1 °C 1017.2 hPa Calm     66% 0 mm 0 W/m2
20:12 0.4 °C -5 °C 1017.2 hPa Calm     67% 0 mm 0 W/m2
20:18 0.4 °C -5.1 °C 1016.8 hPa Calm     67% 0 mm 0 W/m2
20:24 0.4 °C -4.8 °C 1017.2 hPa Calm     68% 0 mm 0 W/m2
20:30 0.3 °C -4.9 °C 1017.2 hPa Calm     68% 0 mm 0 W/m2
20:36 0.3 °C -4.9 °C 1017.5 hPa Calm     68% 0 mm 0 W/m2
20:42 0.2 °C -4.8 °C 1017.5 hPa Calm     69% 0 mm 0 W/m2
20:48 0.3 °C -4.7 °C 1017.5 hPa Calm     69% 0 mm 0 W/m2
20:54 0.3 °C -4.7 °C 1017.5 hPa Calm     69% 0 mm 0 W/m2
21:00 0.3 °C -4.9 °C 1017.5 hPa Calm     68% 0 mm 0 W/m2
21:06 0.3 °C -4.9 °C 1017.5 hPa Calm     68% 0 mm 0 W/m2
21:12 0.4 °C -4.8 °C 1017.5 hPa Calm     68% 0 mm 0 W/m2
21:18 0.4 °C -4.8 °C 1017.2 hPa Calm   1.6 km/h 68% 0 mm 0 W/m2
21:24 0.4 °C -4.8 °C 1017.2 hPa Calm   1.6 km/h 68% 0 mm 0 W/m2
21:30 0.5 °C -4.7 °C 1017.2 hPa Calm     68% 0 mm 0 W/m2
21:36 0.6 °C -4.7 °C 1017.2 hPa Calm   1.6 km/h 68% 0 mm 0 W/m2
21:42 0.6 °C -4.7 °C 1017.2 hPa Calm   1.6 km/h 68% 0 mm 0 W/m2
21:48 0.6 °C -4.7 °C 1017.2 hPa WSW 1.6 km/h 3.2 km/h 68% 0 mm 0 W/m2
21:54 0.6 °C -4.7 °C 1016.8 hPa Calm   3.2 km/h 68% 0 mm 0 W/m2
22:00 0.5 °C -4.7 °C 1016.8 hPa Calm     68% 0 mm 0 W/m2
22:06 0.4 °C -4.8 °C 1016.8 hPa Calm   1.6 km/h 68% 0 mm 0 W/m2
22:12 0.3 °C -4.9 °C 1016.5 hPa Calm   1.6 km/h 68% 0 mm 0 W/m2
22:18 0.3 °C -4.7 °C 1016.5 hPa Calm   1.6 km/h 69% 0 mm 0 W/m2
22:24 0.3 °C -4.7 °C 1016.5 hPa Calm     69% 0 mm 0 W/m2
22:30 0.2 °C -4.8 °C 1016.5 hPa Calm   1.6 km/h 69% 0 mm 0 W/m2
22:36 0.2 °C -4.8 °C 1016.5 hPa Calm   1.6 km/h 69% 0 mm 0 W/m2
22:42 0.2 °C -4.7 °C 1016.5 hPa Calm     70% 0 mm 0 W/m2
22:48 0.1 °C -4.9 °C 1016.5 hPa Calm   3.2 km/h 69% 0 mm 0 W/m2
22:54 0.1 °C -4.7 °C 1016.5 hPa NW 1.6 km/h 6.4 km/h 70% 0 mm 0 W/m2
23:00 0.1 °C -4.8 °C 1016.5 hPa NNW 1.6 km/h 1.6 km/h 70% 0 mm 0 W/m2
23:06 0.1 °C -4.8 °C 1016.5 hPa NNW 1.6 km/h 3.2 km/h 70% 0 mm 0 W/m2
23:12 0 °C -4.6 °C 1016.1 hPa Calm     71% 0 mm 0 W/m2
23:18 -0.1 °C -4.5 °C 1015.8 hPa Calm     72% 0 mm 0 W/m2
23:24 -0.1 °C -4.6 °C 1015.8 hPa NNW 1.6 km/h 1.6 km/h 72% 0 mm 0 W/m2
23:30 -0.2 °C -4.8 °C 1015.8 hPa NNW 1.6 km/h 3.2 km/h 71% 0 mm 0 W/m2
23:36 -0.3 °C -4.9 °C 1015.5 hPa North 3.2 km/h 6.4 km/h 71% 0 mm 0 W/m2
23:42 -0.4 °C -5 °C 1015.5 hPa North 4.8 km/h 4.8 km/h 71% 0 mm 0 W/m2
23:48 -0.5 °C -5.1 °C 1015.5 hPa NNE 4.8 km/h 9.7 km/h 71% 0 mm 0 W/m2
23:54 -0.6 °C -5.2 °C 1015.5 hPa North 3.2 km/h 4.8 km/h 71% 0 mm 0 W/m2
Country Meadow, Clay, NY, USA
Compliments of Weather Underground - 2 mb